Portada
METAR-TAF:

METAR-TAF

Aeroports :

Sotxi, Rússia

latitud: 43-26N, longitud: 039-54E, altitud: 16 m

Observació

L'informe es va fer fa 34 minuts, a les 07:00 UTC
Vent 4 kt del Sud-Oest, variant entre Sud i Oest
Temperatura 26°C
Humitat 70%
Pressió 1016 hPa
Visibilitat 10 km o més
Escasses núvols a una alçada de 2300 ft

METAR: URSS 200700Z 22002MPS 190V260 9999 FEW023 26/20 Q1016 R02/010070 R06/010070 NOSIG RMK R06/24003MPS MT OBSC QFE760

Hora: 10:34 (07:34 UTC)

Pronòstic

L'informe es va fer fa 2 hores i 39 minuts, a les 04:55 UTC
Pronòstic vàlid del 20 a les 06 UTC al 21 a les 06 UTC
Vent 12 kt del Oest
Visibilitat 10 km o més
Escasses núvols a una alçada de 3000 ft
Núvols disperses a una alçada de 10000 ft
Evolucionant progressivament
l' 20 a les 17 UTC al 20 a les 18 UTC
Vent 12 kt del Nord-Est
Cel ennuvolat a una alçada de 1100 ft
Cel cobert a una alçada de 10000 ft

TAF: URSS 200455Z 2006/2106 27006MPS 9999 FEW030 SCT100 BECMG 2017/2018 05006MPS BKN011 OVC100

Observacions i pronòstics meteorològics de més de 4000 aeroports (METAR i TAF).

Les estacions disponibles són els punts grocs i vermells al mapa.

Posi el ratolí al punt desitjat per veure el nom de l'estació.

Feu clic per veure les observacions i els pronòstics meteorològics.

Per canviar el mapa: feu clic els botons verds amb una creu de color negre per apropar; al botó verd amb un guió per allunyar la imatge; o en les fletxes verdes per a mapes adjacents.


METAR-TAF: